sensor_id;sensor_type;location;lat;lon;timestamp;temperature;humidity
58983;DHT22;44771;49.982;8.560;2023-08-06T00:00:35;14.80;99.90
58983;DHT22;44771;49.982;8.560;2023-08-06T00:05:37;14.80;99.90
58983;DHT22;44771;49.982;8.560;2023-08-06T00:10:40;14.80;99.90
58983;DHT22;44771;49.982;8.560;2023-08-06T00:15:42;14.80;99.90
58983;DHT22;44771;49.982;8.560;2023-08-06T00:20:43;14.80;99.90
58983;DHT22;44771;49.982;8.560;2023-08-06T00:25:46;14.80;99.90
58983;DHT22;44771;49.982;8.560;2023-08-06T00:30:51;14.80;99.90
58983;DHT22;44771;49.982;8.560;2023-08-06T00:35:53;14.80;99.90
58983;DHT22;44771;49.982;8.560;2023-08-06T00:40:56;15.00;99.90
58983;DHT22;44771;49.982;8.560;2023-08-06T00:45:58;14.90;99.90
58983;DHT22;44771;49.982;8.560;2023-08-06T00:51:00;15.00;99.90
58983;DHT22;44771;49.982;8.560;2023-08-06T00:56:04;15.00;99.90
58983;DHT22;44771;49.982;8.560;2023-08-06T01:01:06;14.90;99.90
58983;DHT22;44771;49.982;8.560;2023-08-06T01:06:08;15.00;99.90
58983;DHT22;44771;49.982;8.560;2023-08-06T01:11:14;14.90;99.90
58983;DHT22;44771;49.982;8.560;2023-08-06T01:16:19;15.00;99.90
58983;DHT22;44771;49.982;8.560;2023-08-06T01:21:23;15.10;99.90
58983;DHT22;44771;49.982;8.560;2023-08-06T01:26:26;15.00;99.90
58983;DHT22;44771;49.982;8.560;2023-08-06T01:31:30;15.00;99.90
58983;DHT22;44771;49.982;8.560;2023-08-06T01:36:33;15.10;99.90
58983;DHT22;44771;49.982;8.560;2023-08-06T01:41:35;15.10;99.90
58983;DHT22;44771;49.982;8.560;2023-08-06T01:46:36;15.00;99.90
58983;DHT22;44771;49.982;8.560;2023-08-06T01:51:39;15.00;99.90
58983;DHT22;44771;49.982;8.560;2023-08-06T01:56:41;15.00;99.90
58983;DHT22;44771;49.982;8.560;2023-08-06T02:01:43;15.00;99.90
58983;DHT22;44771;49.982;8.560;2023-08-06T02:06:46;15.00;99.90
58983;DHT22;44771;49.982;8.560;2023-08-06T02:11:47;15.00;99.90
58983;DHT22;44771;49.982;8.560;2023-08-06T02:16:49;15.00;99.90
58983;DHT22;44771;49.982;8.560;2023-08-06T02:21:52;15.10;99.90
58983;DHT22;44771;49.982;8.560;2023-08-06T02:26:54;15.10;99.90
58983;DHT22;44771;49.982;8.560;2023-08-06T02:31:56;15.00;99.90
58983;DHT22;44771;49.982;8.560;2023-08-06T02:36:59;15.00;99.90
58983;DHT22;44771;49.982;8.560;2023-08-06T02:42:01;15.00;99.90
58983;DHT22;44771;49.982;8.560;2023-08-06T02:47:03;15.00;99.90
58983;DHT22;44771;49.982;8.560;2023-08-06T02:52:07;15.10;99.90
58983;DHT22;44771;49.982;8.560;2023-08-06T02:57:08;15.10;99.90
58983;DHT22;44771;49.982;8.560;2023-08-06T03:02:10;15.10;99.90
58983;DHT22;44771;49.982;8.560;2023-08-06T03:07:13;15.10;99.90
58983;DHT22;44771;49.982;8.560;2023-08-06T03:12:15;15.10;99.90
58983;DHT22;44771;49.982;8.560;2023-08-06T03:17:16;15.10;99.90
58983;DHT22;44771;49.982;8.560;2023-08-06T03:22:19;15.10;99.90
58983;DHT22;44771;49.982;8.560;2023-08-06T03:27:21;15.10;99.90
58983;DHT22;44771;49.982;8.560;2023-08-06T03:32:22;15.10;99.90
58983;DHT22;44771;49.982;8.560;2023-08-06T03:37:25;15.00;99.90
58983;DHT22;44771;49.982;8.560;2023-08-06T03:42:27;15.00;99.90
58983;DHT22;44771;49.982;8.560;2023-08-06T03:47:29;15.00;99.90
58983;DHT22;44771;49.982;8.560;2023-08-06T03:52:32;14.90;99.90
58983;DHT22;44771;49.982;8.560;2023-08-06T03:57:33;14.90;99.90
58983;DHT22;44771;49.982;8.560;2023-08-06T04:02:35;14.80;99.90
58983;DHT22;44771;49.982;8.560;2023-08-06T04:07:38;14.80;99.90
58983;DHT22;44771;49.982;8.560;2023-08-06T04:12:40;14.80;99.90
58983;DHT22;44771;49.982;8.560;2023-08-06T04:17:41;14.80;99.90
58983;DHT22;44771;49.982;8.560;2023-08-06T04:22:44;14.80;99.90
58983;DHT22;44771;49.982;8.560;2023-08-06T04:27:46;14.70;99.90
58983;DHT22;44771;49.982;8.560;2023-08-06T04:32:49;14.70;99.90
58983;DHT22;44771;49.982;8.560;2023-08-06T04:37:52;14.70;99.90
58983;DHT22;44771;49.982;8.560;2023-08-06T04:42:53;14.70;99.90
58983;DHT22;44771;49.982;8.560;2023-08-06T04:47:55;14.60;99.90
58983;DHT22;44771;49.982;8.560;2023-08-06T04:52:58;14.50;99.90
58983;DHT22;44771;49.982;8.560;2023-08-06T04:58:00;14.50;99.90
58983;DHT22;44771;49.982;8.560;2023-08-06T05:03:02;14.40;99.90
58983;DHT22;44771;49.982;8.560;2023-08-06T05:08:05;14.30;99.90
58983;DHT22;44771;49.982;8.560;2023-08-06T05:13:06;14.30;99.90
58983;DHT22;44771;49.982;8.560;2023-08-06T05:18:08;14.20;99.90
58983;DHT22;44771;49.982;8.560;2023-08-06T05:23:11;14.20;99.90
58983;DHT22;44771;49.982;8.560;2023-08-06T05:28:13;14.10;99.90
58983;DHT22;44771;49.982;8.560;2023-08-06T05:33:16;14.20;99.90
58983;DHT22;44771;49.982;8.560;2023-08-06T05:38:19;14.20;99.90
58983;DHT22;44771;49.982;8.560;2023-08-06T05:43:21;14.20;99.90
58983;DHT22;44771;49.982;8.560;2023-08-06T05:48:24;14.20;99.90
58983;DHT22;44771;49.982;8.560;2023-08-06T05:53:28;14.20;99.90
58983;DHT22;44771;49.982;8.560;2023-08-06T05:58:29;14.20;99.90
58983;DHT22;44771;49.982;8.560;2023-08-06T06:03:31;14.20;99.90
58983;DHT22;44771;49.982;8.560;2023-08-06T06:08:34;14.10;99.90
58983;DHT22;44771;49.982;8.560;2023-08-06T06:13:36;14.10;99.90
58983;DHT22;44771;49.982;8.560;2023-08-06T06:18:37;14.20;99.90
58983;DHT22;44771;49.982;8.560;2023-08-06T06:23:40;14.20;99.90
58983;DHT22;44771;49.982;8.560;2023-08-06T06:28:42;14.30;99.90
58983;DHT22;44771;49.982;8.560;2023-08-06T06:33:44;14.30;99.90
58983;DHT22;44771;49.982;8.560;2023-08-06T06:38:47;14.30;99.90
58983;DHT22;44771;49.982;8.560;2023-08-06T06:43:48;14.30;99.90
58983;DHT22;44771;49.982;8.560;2023-08-06T06:48:50;14.30;99.90
58983;DHT22;44771;49.982;8.560;2023-08-06T06:53:53;14.20;99.90
58983;DHT22;44771;49.982;8.560;2023-08-06T06:58:54;14.20;99.90
58983;DHT22;44771;49.982;8.560;2023-08-06T07:03:56;14.20;99.90
58983;DHT22;44771;49.982;8.560;2023-08-06T07:08:59;14.20;99.90
58983;DHT22;44771;49.982;8.560;2023-08-06T07:14:01;14.30;99.90
58983;DHT22;44771;49.982;8.560;2023-08-06T07:19:03;14.30;99.90
58983;DHT22;44771;49.982;8.560;2023-08-06T07:24:05;14.20;99.90
58983;DHT22;44771;49.982;8.560;2023-08-06T07:29:07;14.10;99.90
58983;DHT22;44771;49.982;8.560;2023-08-06T07:34:09;14.10;99.90
58983;DHT22;44771;49.982;8.560;2023-08-06T07:39:12;14.10;99.90
58983;DHT22;44771;49.982;8.560;2023-08-06T07:44:14;14.20;99.90
58983;DHT22;44771;49.982;8.560;2023-08-06T07:49:15;14.10;99.90
58983;DHT22;44771;49.982;8.560;2023-08-06T07:54:18;14.20;99.90
58983;DHT22;44771;49.982;8.560;2023-08-06T08:53:24;16.90;99.90
58983;DHT22;44771;49.982;8.560;2023-08-06T08:58:26;17.10;99.90
58983;DHT22;44771;49.982;8.560;2023-08-06T09:03:28;16.90;99.90
58983;DHT22;44771;49.982;8.560;2023-08-06T09:08:32;16.60;99.90
58983;DHT22;44771;49.982;8.560;2023-08-06T09:13:35;16.20;99.90
58983;DHT22;44771;49.982;8.560;2023-08-06T09:18:38;16.10;99.90
58983;DHT22;44771;49.982;8.560;2023-08-06T09:23:41;16.50;99.90
58983;DHT22;44771;49.982;8.560;2023-08-06T09:28:43;16.50;99.90
58983;DHT22;44771;49.982;8.560;2023-08-06T09:33:45;16.10;99.90
58983;DHT22;44771;49.982;8.560;2023-08-06T09:38:48;16.10;99.90
58983;DHT22;44771;49.982;8.560;2023-08-06T09:43:50;16.30;99.90
58983;DHT22;44771;49.982;8.560;2023-08-06T09:48:51;16.60;99.90
58983;DHT22;44771;49.982;8.560;2023-08-06T09:53:55;16.50;99.90
58983;DHT22;44771;49.982;8.560;2023-08-06T09:58:56;17.00;99.90
58983;DHT22;44771;49.982;8.560;2023-08-06T10:03:58;17.10;99.90
58983;DHT22;44771;49.982;8.560;2023-08-06T10:09:02;16.90;99.90
58983;DHT22;44771;49.982;8.560;2023-08-06T10:14:06;16.80;99.90
58983;DHT22;44771;49.982;8.560;2023-08-06T10:19:10;16.80;99.90
58983;DHT22;44771;49.982;8.560;2023-08-06T10:24:14;16.80;99.90
58983;DHT22;44771;49.982;8.560;2023-08-06T10:29:34;17.00;99.90
58983;DHT22;44771;49.982;8.560;2023-08-06T10:34:55;16.90;99.90
58983;DHT22;44771;49.982;8.560;2023-08-06T10:39:58;16.60;99.90
58983;DHT22;44771;49.982;8.560;2023-08-06T10:45:13;16.40;99.90
58983;DHT22;44771;49.982;8.560;2023-08-06T10:50:15;16.50;99.90
58983;DHT22;44771;49.982;8.560;2023-08-06T10:55:25;16.50;99.90
58983;DHT22;44771;49.982;8.560;2023-08-06T11:00:27;16.50;99.90
58983;DHT22;44771;49.982;8.560;2023-08-06T11:05:29;16.50;99.90
58983;DHT22;44771;49.982;8.560;2023-08-06T11:10:33;16.50;99.90
58983;DHT22;44771;49.982;8.560;2023-08-06T11:15:48;16.70;99.90
58983;DHT22;44771;49.982;8.560;2023-08-06T11:20:50;16.80;99.90
58983;DHT22;44771;49.982;8.560;2023-08-06T11:25:54;16.50;99.90
58983;DHT22;44771;49.982;8.560;2023-08-06T11:30:57;16.10;99.90
58983;DHT22;44771;49.982;8.560;2023-08-06T11:35:59;16.10;99.90
58983;DHT22;44771;49.982;8.560;2023-08-06T11:41:02;16.30;99.90
58983;DHT22;44771;49.982;8.560;2023-08-06T11:46:04;16.40;99.90
58983;DHT22;44771;49.982;8.560;2023-08-06T11:51:11;16.10;99.90
58983;DHT22;44771;49.982;8.560;2023-08-06T11:56:14;15.70;99.90
58983;DHT22;44771;49.982;8.560;2023-08-06T12:01:16;15.20;99.90
58983;DHT22;44771;49.982;8.560;2023-08-06T12:06:17;14.80;99.90
58983;DHT22;44771;49.982;8.560;2023-08-06T12:11:21;14.70;99.90
58983;DHT22;44771;49.982;8.560;2023-08-06T12:16:23;14.60;99.90
58983;DHT22;44771;49.982;8.560;2023-08-06T12:21:24;14.60;99.90
58983;DHT22;44771;49.982;8.560;2023-08-06T12:26:27;14.50;99.90
58983;DHT22;44771;49.982;8.560;2023-08-06T12:31:29;14.50;99.90
58983;DHT22;44771;49.982;8.560;2023-08-06T12:36:30;14.60;99.90
58983;DHT22;44771;49.982;8.560;2023-08-06T12:41:33;14.80;99.90
58983;DHT22;44771;49.982;8.560;2023-08-06T12:46:35;14.90;99.90
58983;DHT22;44771;49.982;8.560;2023-08-06T12:51:37;15.10;99.90
58983;DHT22;44771;49.982;8.560;2023-08-06T12:56:40;14.90;99.90
58983;DHT22;44771;49.982;8.560;2023-08-06T13:01:41;14.60;99.90
58983;DHT22;44771;49.982;8.560;2023-08-06T13:06:43;14.50;99.90
58983;DHT22;44771;49.982;8.560;2023-08-06T13:11:46;14.30;99.90
58983;DHT22;44771;49.982;8.560;2023-08-06T13:16:48;14.40;99.90
58983;DHT22;44771;49.982;8.560;2023-08-06T13:22:00;14.60;99.90
58983;DHT22;44771;49.982;8.560;2023-08-06T13:27:06;14.50;99.90
58983;DHT22;44771;49.982;8.560;2023-08-06T13:32:08;14.50;99.90
58983;DHT22;44771;49.982;8.560;2023-08-06T13:37:10;14.50;99.90
58983;DHT22;44771;49.982;8.560;2023-08-06T13:42:13;14.50;99.90
58983;DHT22;44771;49.982;8.560;2023-08-06T13:47:14;14.60;99.90
58983;DHT22;44771;49.982;8.560;2023-08-06T13:52:16;14.70;99.90
58983;DHT22;44771;49.982;8.560;2023-08-06T13:57:24;14.60;99.90
58983;DHT22;44771;49.982;8.560;2023-08-06T14:02:26;14.50;99.90
58983;DHT22;44771;49.982;8.560;2023-08-06T14:07:27;14.40;99.90
58983;DHT22;44771;49.982;8.560;2023-08-06T14:12:30;14.30;99.90
58983;DHT22;44771;49.982;8.560;2023-08-06T14:17:32;14.20;99.90
58983;DHT22;44771;49.982;8.560;2023-08-06T14:22:34;14.20;99.90
58983;DHT22;44771;49.982;8.560;2023-08-06T14:27:37;14.30;99.90
58983;DHT22;44771;49.982;8.560;2023-08-06T14:32:39;14.30;99.90
58983;DHT22;44771;49.982;8.560;2023-08-06T14:37:40;14.40;99.90
58983;DHT22;44771;49.982;8.560;2023-08-06T14:42:43;14.40;99.90
58983;DHT22;44771;49.982;8.560;2023-08-06T14:47:45;14.40;99.90
58983;DHT22;44771;49.982;8.560;2023-08-06T14:52:47;14.40;99.90
58983;DHT22;44771;49.982;8.560;2023-08-06T14:57:50;14.40;99.90
58983;DHT22;44771;49.982;8.560;2023-08-06T15:02:51;14.40;99.90
58983;DHT22;44771;49.982;8.560;2023-08-06T15:07:53;14.20;99.90
58983;DHT22;44771;49.982;8.560;2023-08-06T15:12:56;14.20;99.90
58983;DHT22;44771;49.982;8.560;2023-08-06T15:17:58;14.10;99.90
58983;DHT22;44771;49.982;8.560;2023-08-06T15:22:59;14.10;99.90
58983;DHT22;44771;49.982;8.560;2023-08-06T15:28:02;14.10;99.90
58983;DHT22;44771;49.982;8.560;2023-08-06T15:33:04;14.10;99.90
58983;DHT22;44771;49.982;8.560;2023-08-06T15:49:25;14.00;99.90
58983;DHT22;44771;49.982;8.560;2023-08-06T15:54:26;14.10;99.90
58983;DHT22;44771;49.982;8.560;2023-08-06T15:59:36;14.20;99.90
58983;DHT22;44771;49.982;8.560;2023-08-06T16:04:56;14.10;99.90
58983;DHT22;44771;49.982;8.560;2023-08-06T16:09:58;14.20;99.90
58983;DHT22;44771;49.982;8.560;2023-08-06T16:14:59;14.10;99.90
58983;DHT22;44771;49.982;8.560;2023-08-06T16:20:03;14.10;99.90
58983;DHT22;44771;49.982;8.560;2023-08-06T16:25:04;14.00;99.90
58983;DHT22;44771;49.982;8.560;2023-08-06T16:30:07;14.00;99.90
58983;DHT22;44771;49.982;8.560;2023-08-06T16:35:10;14.00;99.90
58983;DHT22;44771;49.982;8.560;2023-08-06T16:40:12;14.00;99.90
58983;DHT22;44771;49.982;8.560;2023-08-06T16:45:13;14.00;99.90
58983;DHT22;44771;49.982;8.560;2023-08-06T16:50:16;14.00;99.90
58983;DHT22;44771;49.982;8.560;2023-08-06T16:55:18;14.00;99.90
58983;DHT22;44771;49.982;8.560;2023-08-06T17:00:20;14.00;99.90
58983;DHT22;44771;49.982;8.560;2023-08-06T17:05:23;14.00;99.90
58983;DHT22;44771;49.982;8.560;2023-08-06T17:10:25;13.90;99.90
58983;DHT22;44771;49.982;8.560;2023-08-06T17:15:27;13.80;99.90
58983;DHT22;44771;49.982;8.560;2023-08-06T17:20:30;13.70;99.90
58983;DHT22;44771;49.982;8.560;2023-08-06T17:25:31;13.60;99.90
58983;DHT22;44771;49.982;8.560;2023-08-06T17:30:33;13.60;99.90
58983;DHT22;44771;49.982;8.560;2023-08-06T17:35:39;13.50;99.90
58983;DHT22;44771;49.982;8.560;2023-08-06T17:40:42;13.50;99.90
58983;DHT22;44771;49.982;8.560;2023-08-06T17:45:44;13.50;99.90
58983;DHT22;44771;49.982;8.560;2023-08-06T17:50:47;13.40;99.90
58983;DHT22;44771;49.982;8.560;2023-08-06T17:55:49;13.30;99.90
58983;DHT22;44771;49.982;8.560;2023-08-06T18:00:51;13.30;99.90
58983;DHT22;44771;49.982;8.560;2023-08-06T18:05:58;13.20;99.90
58983;DHT22;44771;49.982;8.560;2023-08-06T18:10:59;13.20;99.90
58983;DHT22;44771;49.982;8.560;2023-08-06T18:16:01;13.10;99.90
58983;DHT22;44771;49.982;8.560;2023-08-06T18:21:04;13.10;99.90
58983;DHT22;44771;49.982;8.560;2023-08-06T18:26:06;13.10;99.90
58983;DHT22;44771;49.982;8.560;2023-08-06T18:31:08;13.00;99.90
58983;DHT22;44771;49.982;8.560;2023-08-06T18:36:11;13.00;99.90
58983;DHT22;44771;49.982;8.560;2023-08-06T18:41:13;12.90;99.90
58983;DHT22;44771;49.982;8.560;2023-08-06T18:46:14;12.80;99.90
58983;DHT22;44771;49.982;8.560;2023-08-06T18:51:17;12.80;99.90
58983;DHT22;44771;49.982;8.560;2023-08-06T18:56:19;12.80;99.90
58983;DHT22;44771;49.982;8.560;2023-08-06T19:01:21;12.80;99.90
58983;DHT22;44771;49.982;8.560;2023-08-06T19:06:24;12.70;99.90
58983;DHT22;44771;49.982;8.560;2023-08-06T19:11:26;12.70;99.90
58983;DHT22;44771;49.982;8.560;2023-08-06T19:16:27;12.60;99.90
58983;DHT22;44771;49.982;8.560;2023-08-06T19:21:30;12.70;99.90
58983;DHT22;44771;49.982;8.560;2023-08-06T19:26:32;12.60;99.90
58983;DHT22;44771;49.982;8.560;2023-08-06T19:31:34;12.60;99.90
58983;DHT22;44771;49.982;8.560;2023-08-06T19:36:37;12.60;99.90
58983;DHT22;44771;49.982;8.560;2023-08-06T19:41:38;12.60;99.90
58983;DHT22;44771;49.982;8.560;2023-08-06T19:46:40;12.50;99.90
58983;DHT22;44771;49.982;8.560;2023-08-06T19:51:43;12.40;99.90
58983;DHT22;44771;49.982;8.560;2023-08-06T19:56:45;12.40;99.90
58983;DHT22;44771;49.982;8.560;2023-08-06T20:01:46;12.40;99.90
58983;DHT22;44771;49.982;8.560;2023-08-06T20:06:49;12.40;99.90
58983;DHT22;44771;49.982;8.560;2023-08-06T20:11:52;12.40;99.90
58983;DHT22;44771;49.982;8.560;2023-08-06T20:16:55;12.30;99.90
58983;DHT22;44771;49.982;8.560;2023-08-06T20:21:58;12.30;99.90
58983;DHT22;44771;49.982;8.560;2023-08-06T20:26:59;12.30;99.90
58983;DHT22;44771;49.982;8.560;2023-08-06T20:32:01;12.30;99.90
58983;DHT22;44771;49.982;8.560;2023-08-06T20:37:05;12.30;99.90
58983;DHT22;44771;49.982;8.560;2023-08-06T20:42:06;12.20;99.90
58983;DHT22;44771;49.982;8.560;2023-08-06T20:47:08;12.20;99.90
58983;DHT22;44771;49.982;8.560;2023-08-06T20:52:11;12.20;99.90
58983;DHT22;44771;49.982;8.560;2023-08-06T20:57:13;12.20;99.90
58983;DHT22;44771;49.982;8.560;2023-08-06T21:02:14;12.20;99.90
58983;DHT22;44771;49.982;8.560;2023-08-06T21:07:17;12.30;99.90
58983;DHT22;44771;49.982;8.560;2023-08-06T21:12:19;12.30;99.90
58983;DHT22;44771;49.982;8.560;2023-08-06T21:17:21;12.30;99.90
58983;DHT22;44771;49.982;8.560;2023-08-06T21:22:24;12.20;99.90
58983;DHT22;44771;49.982;8.560;2023-08-06T21:27:25;12.30;99.90
58983;DHT22;44771;49.982;8.560;2023-08-06T21:32:27;12.20;99.90
58983;DHT22;44771;49.982;8.560;2023-08-06T21:37:30;12.20;99.90
58983;DHT22;44771;49.982;8.560;2023-08-06T21:42:32;12.30;99.90
58983;DHT22;44771;49.982;8.560;2023-08-06T21:47:33;12.30;99.90
58983;DHT22;44771;49.982;8.560;2023-08-06T21:52:36;12.20;99.90
58983;DHT22;44771;49.982;8.560;2023-08-06T21:57:38;12.20;99.90
58983;DHT22;44771;49.982;8.560;2023-08-06T22:02:39;12.10;99.90
58983;DHT22;44771;49.982;8.560;2023-08-06T22:07:43;12.10;99.90
58983;DHT22;44771;49.982;8.560;2023-08-06T22:12:44;12.20;99.90
58983;DHT22;44771;49.982;8.560;2023-08-06T22:17:46;12.20;99.90
58983;DHT22;44771;49.982;8.560;2023-08-06T22:22:51;12.20;99.90
58983;DHT22;44771;49.982;8.560;2023-08-06T22:27:53;12.10;99.90
58983;DHT22;44771;49.982;8.560;2023-08-06T22:32:55;12.00;99.90
58983;DHT22;44771;49.982;8.560;2023-08-06T22:37:58;12.00;99.90
58983;DHT22;44771;49.982;8.560;2023-08-06T22:42:59;12.10;99.90
58983;DHT22;44771;49.982;8.560;2023-08-06T22:48:01;12.10;99.90
58983;DHT22;44771;49.982;8.560;2023-08-06T22:53:04;12.10;99.90
58983;DHT22;44771;49.982;8.560;2023-08-06T22:58:06;12.10;99.90
58983;DHT22;44771;49.982;8.560;2023-08-06T23:03:07;12.10;99.90
58983;DHT22;44771;49.982;8.560;2023-08-06T23:08:14;12.10;99.90
58983;DHT22;44771;49.982;8.560;2023-08-06T23:13:16;12.10;99.90
58983;DHT22;44771;49.982;8.560;2023-08-06T23:18:18;12.00;99.90
58983;DHT22;44771;49.982;8.560;2023-08-06T23:23:21;12.00;99.90
58983;DHT22;44771;49.982;8.560;2023-08-06T23:28:23;12.10;99.90
58983;DHT22;44771;49.982;8.560;2023-08-06T23:33:25;12.00;99.90
58983;DHT22;44771;49.982;8.560;2023-08-06T23:38:28;12.00;99.90
58983;DHT22;44771;49.982;8.560;2023-08-06T23:43:30;12.00;99.90
58983;DHT22;44771;49.982;8.560;2023-08-06T23:48:31;11.90;99.90
58983;DHT22;44771;49.982;8.560;2023-08-06T23:53:34;11.90;99.90
58983;DHT22;44771;49.982;8.560;2023-08-06T23:58:36;11.90;99.90
